sensor_id;sensor_type;location;lat;lon;timestamp;P1;durP1;ratioP1;P2;durP2;ratioP2
635;SDS011;302;50.206;8.196;2024-03-23T00:54:39;29.83;;;21.02;;
635;SDS011;302;50.206;8.196;2024-03-23T00:57:23;29.90;;;21.83;;
635;SDS011;302;50.206;8.196;2024-03-23T01:00:07;36.30;;;22.77;;
635;SDS011;302;50.206;8.196;2024-03-23T01:02:54;34.40;;;21.63;;
635;SDS011;302;50.206;8.196;2024-03-23T01:05:38;31.10;;;21.45;;
635;SDS011;302;50.206;8.196;2024-03-23T01:08:22;35.17;;;22.95;;
635;SDS011;302;50.206;8.196;2024-03-23T01:11:06;33.78;;;22.85;;
635;SDS011;302;50.206;8.196;2024-03-23T01:13:49;35.60;;;22.50;;
635;SDS011;302;50.206;8.196;2024-03-23T01:16:33;33.20;;;23.50;;
635;SDS011;302;50.206;8.196;2024-03-23T01:19:17;34.10;;;21.50;;
635;SDS011;302;50.206;8.196;2024-03-23T01:22:01;33.55;;;22.33;;
635;SDS011;302;50.206;8.196;2024-03-23T01:24:45;31.70;;;22.38;;
635;SDS011;302;50.206;8.196;2024-03-23T01:27:29;37.67;;;22.83;;
635;SDS011;302;50.206;8.196;2024-03-23T01:30:13;34.35;;;22.27;;
635;SDS011;302;50.206;8.196;2024-03-23T01:32:57;33.60;;;21.30;;
635;SDS011;302;50.206;8.196;2024-03-23T01:35:41;34.28;;;21.95;;
635;SDS011;302;50.206;8.196;2024-03-23T01:38:27;37.47;;;23.40;;
635;SDS011;302;50.206;8.196;2024-03-23T01:41:10;32.95;;;22.63;;
635;SDS011;302;50.206;8.196;2024-03-23T01:43:54;38.17;;;22.55;;
635;SDS011;302;50.206;8.196;2024-03-23T01:46:38;35.72;;;23.23;;
635;SDS011;302;50.206;8.196;2024-03-23T01:49:22;34.17;;;22.70;;
635;SDS011;302;50.206;8.196;2024-03-23T01:52:06;31.58;;;20.42;;
635;SDS011;302;50.206;8.196;2024-03-23T01:54:50;34.60;;;22.88;;
635;SDS011;302;50.206;8.196;2024-03-23T01:57:34;33.97;;;21.75;;
635;SDS011;302;50.206;8.196;2024-03-23T02:00:18;33.70;;;20.90;;
635;SDS011;302;50.206;8.196;2024-03-23T02:03:01;32.42;;;20.55;;
635;SDS011;302;50.206;8.196;2024-03-23T02:05:45;33.67;;;22.30;;
635;SDS011;302;50.206;8.196;2024-03-23T02:08:29;32.15;;;21.40;;
635;SDS011;302;50.206;8.196;2024-03-23T02:11:14;32.80;;;22.95;;
635;SDS011;302;50.206;8.196;2024-03-23T02:13:58;33.28;;;21.35;;
635;SDS011;302;50.206;8.196;2024-03-23T02:16:42;32.08;;;21.35;;
635;SDS011;302;50.206;8.196;2024-03-23T02:19:26;33.25;;;20.83;;
635;SDS011;302;50.206;8.196;2024-03-23T02:22:10;34.63;;;21.70;;
635;SDS011;302;50.206;8.196;2024-03-23T02:24:55;32.85;;;21.30;;
635;SDS011;302;50.206;8.196;2024-03-23T02:27:39;33.55;;;20.73;;
635;SDS011;302;50.206;8.196;2024-03-23T02:30:23;33.53;;;22.17;;
635;SDS011;302;50.206;8.196;2024-03-23T02:33:07;35.15;;;21.65;;
635;SDS011;302;50.206;8.196;2024-03-23T02:35:55;32.42;;;21.90;;
635;SDS011;302;50.206;8.196;2024-03-23T02:38:39;32.92;;;20.67;;
635;SDS011;302;50.206;8.196;2024-03-23T02:41:23;33.53;;;21.30;;
635;SDS011;302;50.206;8.196;2024-03-23T02:44:07;36.05;;;22.13;;
635;SDS011;302;50.206;8.196;2024-03-23T02:46:51;31.48;;;21.02;;
635;SDS011;302;50.206;8.196;2024-03-23T02:49:35;33.83;;;20.52;;
635;SDS011;302;50.206;8.196;2024-03-23T02:52:19;36.65;;;21.10;;
635;SDS011;302;50.206;8.196;2024-03-23T02:55:03;36.25;;;20.85;;
635;SDS011;302;50.206;8.196;2024-03-23T02:57:47;31.55;;;20.30;;
635;SDS011;302;50.206;8.196;2024-03-23T03:00:31;32.17;;;21.23;;
635;SDS011;302;50.206;8.196;2024-03-23T03:03:15;34.78;;;22.05;;
635;SDS011;302;50.206;8.196;2024-03-23T03:05:59;33.33;;;20.88;;
635;SDS011;302;50.206;8.196;2024-03-23T03:08:43;31.67;;;20.67;;
635;SDS011;302;50.206;8.196;2024-03-23T03:11:27;35.75;;;22.45;;
635;SDS011;302;50.206;8.196;2024-03-23T03:14:11;33.95;;;21.10;;
635;SDS011;302;50.206;8.196;2024-03-23T03:16:56;34.53;;;21.65;;
635;SDS011;302;50.206;8.196;2024-03-23T03:19:40;34.55;;;21.10;;
635;SDS011;302;50.206;8.196;2024-03-23T03:22:23;33.67;;;20.30;;
635;SDS011;302;50.206;8.196;2024-03-23T03:25:07;29.70;;;18.58;;
635;SDS011;302;50.206;8.196;2024-03-23T03:27:51;23.98;;;15.70;;
635;SDS011;302;50.206;8.196;2024-03-23T03:30:35;17.42;;;11.57;;
635;SDS011;302;50.206;8.196;2024-03-23T03:33:19;14.50;;;10.23;;
635;SDS011;302;50.206;8.196;2024-03-23T03:36:03;8.20;;;6.40;;
635;SDS011;302;50.206;8.196;2024-03-23T03:38:47;5.97;;;4.35;;
635;SDS011;302;50.206;8.196;2024-03-23T03:41:31;3.33;;;2.50;;
635;SDS011;302;50.206;8.196;2024-03-23T03:44:15;2.97;;;2.22;;
635;SDS011;302;50.206;8.196;2024-03-23T03:46:59;2.60;;;1.92;;
635;SDS011;302;50.206;8.196;2024-03-23T03:49:43;2.80;;;2.33;;
635;SDS011;302;50.206;8.196;2024-03-23T03:52:27;4.18;;;3.00;;
635;SDS011;302;50.206;8.196;2024-03-23T03:55:12;3.58;;;3.22;;
635;SDS011;302;50.206;8.196;2024-03-23T03:57:56;2.50;;;2.30;;
635;SDS011;302;50.206;8.196;2024-03-23T04:00:40;3.10;;;2.65;;
635;SDS011;302;50.206;8.196;2024-03-23T04:03:24;3.38;;;1.92;;
635;SDS011;302;50.206;8.196;2024-03-23T04:06:08;2.47;;;1.90;;
635;SDS011;302;50.206;8.196;2024-03-23T04:08:52;2.00;;;1.55;;
635;SDS011;302;50.206;8.196;2024-03-23T04:11:36;1.80;;;1.45;;
635;SDS011;302;50.206;8.196;2024-03-23T04:14:20;2.35;;;1.85;;
635;SDS011;302;50.206;8.196;2024-03-23T04:17:04;2.88;;;2.40;;
635;SDS011;302;50.206;8.196;2024-03-23T04:19:48;1.92;;;1.73;;
635;SDS011;302;50.206;8.196;2024-03-23T04:22:32;2.25;;;1.98;;
635;SDS011;302;50.206;8.196;2024-03-23T04:25:16;1.85;;;1.63;;
635;SDS011;302;50.206;8.196;2024-03-23T04:28:03;4.32;;;2.05;;
635;SDS011;302;50.206;8.196;2024-03-23T04:30:46;2.33;;;2.13;;
635;SDS011;302;50.206;8.196;2024-03-23T04:33:30;2.42;;;2.20;;
635;SDS011;302;50.206;8.196;2024-03-23T04:36:14;2.20;;;2.00;;
635;SDS011;302;50.206;8.196;2024-03-23T04:38:59;2.72;;;2.20;;
635;SDS011;302;50.206;8.196;2024-03-23T04:41:44;2.80;;;2.60;;
635;SDS011;302;50.206;8.196;2024-03-23T04:44:28;2.45;;;2.25;;
635;SDS011;302;50.206;8.196;2024-03-23T04:47:11;2.38;;;2.17;;
635;SDS011;302;50.206;8.196;2024-03-23T04:49:55;3.28;;;2.22;;
635;SDS011;302;50.206;8.196;2024-03-23T04:52:39;2.58;;;2.22;;
635;SDS011;302;50.206;8.196;2024-03-23T04:55:23;2.60;;;2.17;;
635;SDS011;302;50.206;8.196;2024-03-23T04:58:07;2.60;;;2.40;;
635;SDS011;302;50.206;8.196;2024-03-23T05:00:55;2.53;;;2.33;;
635;SDS011;302;50.206;8.196;2024-03-23T05:03:39;4.20;;;2.42;;
635;SDS011;302;50.206;8.196;2024-03-23T05:06:23;4.03;;;2.80;;
635;SDS011;302;50.206;8.196;2024-03-23T05:09:07;2.90;;;2.65;;
635;SDS011;302;50.206;8.196;2024-03-23T05:11:51;2.60;;;2.33;;
635;SDS011;302;50.206;8.196;2024-03-23T05:14:35;3.10;;;2.80;;
635;SDS011;302;50.206;8.196;2024-03-23T05:17:19;2.58;;;2.38;;
635;SDS011;302;50.206;8.196;2024-03-23T05:20:03;2.58;;;2.38;;
635;SDS011;302;50.206;8.196;2024-03-23T05:22:47;2.60;;;1.83;;
635;SDS011;302;50.206;8.196;2024-03-23T05:25:31;1.70;;;1.60;;
635;SDS011;302;50.206;8.196;2024-03-23T05:28:15;1.98;;;1.85;;
635;SDS011;302;50.206;8.196;2024-03-23T05:30:59;2.50;;;1.95;;
635;SDS011;302;50.206;8.196;2024-03-23T05:33:43;2.25;;;2.03;;
635;SDS011;302;50.206;8.196;2024-03-23T05:36:27;1.83;;;1.70;;
635;SDS011;302;50.206;8.196;2024-03-23T05:39:11;1.45;;;1.35;;
635;SDS011;302;50.206;8.196;2024-03-23T05:41:55;1.60;;;1.50;;
635;SDS011;302;50.206;8.196;2024-03-23T05:44:39;1.67;;;1.30;;
635;SDS011;302;50.206;8.196;2024-03-23T05:47:22;1.63;;;1.48;;
635;SDS011;302;50.206;8.196;2024-03-23T05:50:07;1.52;;;1.10;;
635;SDS011;302;50.206;8.196;2024-03-23T05:52:50;1.52;;;1.40;;
635;SDS011;302;50.206;8.196;2024-03-23T05:55:34;1.60;;;1.30;;
635;SDS011;302;50.206;8.196;2024-03-23T05:58:18;1.70;;;1.40;;
635;SDS011;302;50.206;8.196;2024-03-23T06:01:03;1.60;;;1.50;;
635;SDS011;302;50.206;8.196;2024-03-23T06:03:48;1.50;;;1.10;;
635;SDS011;302;50.206;8.196;2024-03-23T06:06:32;1.35;;;1.25;;
635;SDS011;302;50.206;8.196;2024-03-23T06:09:16;1.40;;;1.10;;
635;SDS011;302;50.206;8.196;2024-03-23T06:12:00;2.30;;;2.10;;
635;SDS011;302;50.206;8.196;2024-03-23T06:14:44;1.98;;;1.45;;
635;SDS011;302;50.206;8.196;2024-03-23T06:17:28;1.75;;;1.30;;
635;SDS011;302;50.206;8.196;2024-03-23T06:20:12;1.75;;;1.65;;
635;SDS011;302;50.206;8.196;2024-03-23T06:22:57;1.73;;;1.60;;
635;SDS011;302;50.206;8.196;2024-03-23T06:25:41;3.25;;;1.80;;
635;SDS011;302;50.206;8.196;2024-03-23T06:28:25;3.35;;;2.17;;
635;SDS011;302;50.206;8.196;2024-03-23T06:31:09;2.00;;;1.60;;
635;SDS011;302;50.206;8.196;2024-03-23T06:33:55;3.50;;;2.55;;
635;SDS011;302;50.206;8.196;2024-03-23T06:36:38;6.80;;;3.30;;
635;SDS011;302;50.206;8.196;2024-03-23T06:39:22;3.15;;;2.33;;
635;SDS011;302;50.206;8.196;2024-03-23T06:42:06;3.45;;;2.80;;
635;SDS011;302;50.206;8.196;2024-03-23T06:44:51;7.32;;;3.10;;
635;SDS011;302;50.206;8.196;2024-03-23T06:47:35;5.65;;;3.30;;
635;SDS011;302;50.206;8.196;2024-03-23T06:50:19;5.30;;;3.13;;
635;SDS011;302;50.206;8.196;2024-03-23T06:53:03;3.17;;;2.90;;
635;SDS011;302;50.206;8.196;2024-03-23T06:55:52;3.65;;;2.80;;
635;SDS011;302;50.206;8.196;2024-03-23T06:58:36;4.30;;;3.00;;
635;SDS011;302;50.206;8.196;2024-03-23T07:01:20;6.55;;;3.83;;
635;SDS011;302;50.206;8.196;2024-03-23T07:04:04;4.45;;;3.50;;
635;SDS011;302;50.206;8.196;2024-03-23T07:06:48;6.07;;;4.20;;
635;SDS011;302;50.206;8.196;2024-03-23T07:09:32;5.05;;;4.10;;
635;SDS011;302;50.206;8.196;2024-03-23T07:12:16;6.88;;;5.30;;
635;SDS011;302;50.206;8.196;2024-03-23T07:15:00;9.38;;;4.60;;
635;SDS011;302;50.206;8.196;2024-03-23T07:17:46;5.97;;;5.25;;
635;SDS011;302;50.206;8.196;2024-03-23T07:20:30;6.63;;;5.93;;
635;SDS011;302;50.206;8.196;2024-03-23T07:23:14;6.22;;;5.63;;
635;SDS011;302;50.206;8.196;2024-03-23T07:26:03;10.65;;;5.13;;
635;SDS011;302;50.206;8.196;2024-03-23T07:28:48;5.43;;;4.93;;
635;SDS011;302;50.206;8.196;2024-03-23T07:31:33;7.65;;;5.80;;
635;SDS011;302;50.206;8.196;2024-03-23T07:34:17;7.00;;;5.95;;
635;SDS011;302;50.206;8.196;2024-03-23T07:37:01;6.93;;;6.28;;
635;SDS011;302;50.206;8.196;2024-03-23T07:39:45;6.88;;;6.18;;
635;SDS011;302;50.206;8.196;2024-03-23T07:42:29;8.95;;;5.75;;
635;SDS011;302;50.206;8.196;2024-03-23T07:45:13;7.05;;;6.35;;
635;SDS011;302;50.206;8.196;2024-03-23T07:47:57;6.20;;;5.60;;
635;SDS011;302;50.206;8.196;2024-03-23T07:50:40;7.55;;;6.85;;
635;SDS011;302;50.206;8.196;2024-03-23T07:53:24;9.43;;;6.20;;
635;SDS011;302;50.206;8.196;2024-03-23T07:56:08;7.20;;;6.40;;
635;SDS011;302;50.206;8.196;2024-03-23T07:58:55;7.18;;;5.95;;
635;SDS011;302;50.206;8.196;2024-03-23T08:01:39;9.70;;;6.40;;
635;SDS011;302;50.206;8.196;2024-03-23T08:04:24;6.15;;;5.55;;
635;SDS011;302;50.206;8.196;2024-03-23T08:07:07;9.52;;;6.65;;
635;SDS011;302;50.206;8.196;2024-03-23T08:09:51;11.75;;;6.55;;
635;SDS011;302;50.206;8.196;2024-03-23T08:12:35;6.20;;;5.35;;
635;SDS011;302;50.206;8.196;2024-03-23T08:15:19;7.97;;;5.72;;
635;SDS011;302;50.206;8.196;2024-03-23T08:18:03;6.35;;;5.72;;
635;SDS011;302;50.206;8.196;2024-03-23T08:20:55;6.35;;;5.18;;
635;SDS011;302;50.206;8.196;2024-03-23T08:23:39;8.32;;;5.35;;
635;SDS011;302;50.206;8.196;2024-03-23T08:26:23;13.77;;;7.13;;
635;SDS011;302;50.206;8.196;2024-03-23T08:29:07;10.05;;;6.03;;
635;SDS011;302;50.206;8.196;2024-03-23T08:31:50;8.68;;;6.00;;
635;SDS011;302;50.206;8.196;2024-03-23T08:34:34;8.55;;;5.75;;
635;SDS011;302;50.206;8.196;2024-03-23T08:37:18;7.32;;;6.13;;
635;SDS011;302;50.206;8.196;2024-03-23T08:40:02;7.95;;;6.18;;
635;SDS011;302;50.206;8.196;2024-03-23T08:42:47;13.23;;;6.68;;
635;SDS011;302;50.206;8.196;2024-03-23T08:45:31;9.07;;;5.65;;
635;SDS011;302;50.206;8.196;2024-03-23T08:48:15;10.20;;;6.30;;
635;SDS011;302;50.206;8.196;2024-03-23T08:51:05;8.98;;;6.78;;
635;SDS011;302;50.206;8.196;2024-03-23T08:53:50;9.38;;;6.75;;
635;SDS011;302;50.206;8.196;2024-03-23T08:56:34;6.50;;;5.28;;
635;SDS011;302;50.206;8.196;2024-03-23T08:59:18;6.50;;;5.40;;
635;SDS011;302;50.206;8.196;2024-03-23T09:02:01;7.75;;;5.80;;
635;SDS011;302;50.206;8.196;2024-03-23T09:04:45;10.48;;;6.32;;
635;SDS011;302;50.206;8.196;2024-03-23T09:07:30;10.07;;;5.45;;
635;SDS011;302;50.206;8.196;2024-03-23T09:10:14;6.57;;;5.15;;
635;SDS011;302;50.206;8.196;2024-03-23T09:12:58;5.50;;;4.72;;
635;SDS011;302;50.206;8.196;2024-03-23T09:15:46;8.10;;;4.63;;
635;SDS011;302;50.206;8.196;2024-03-23T09:18:31;9.57;;;4.78;;
635;SDS011;302;50.206;8.196;2024-03-23T09:21:15;6.32;;;4.88;;
635;SDS011;302;50.206;8.196;2024-03-23T09:23:59;6.05;;;4.25;;
635;SDS011;302;50.206;8.196;2024-03-23T09:26:43;6.72;;;3.80;;
635;SDS011;302;50.206;8.196;2024-03-23T09:29:27;6.60;;;3.05;;
635;SDS011;302;50.206;8.196;2024-03-23T09:32:11;4.45;;;3.03;;
635;SDS011;302;50.206;8.196;2024-03-23T09:34:55;6.20;;;3.05;;
635;SDS011;302;50.206;8.196;2024-03-23T09:37:39;4.05;;;2.63;;
635;SDS011;302;50.206;8.196;2024-03-23T09:40:26;5.43;;;2.40;;
635;SDS011;302;50.206;8.196;2024-03-23T09:43:10;8.63;;;3.50;;
635;SDS011;302;50.206;8.196;2024-03-23T09:45:54;6.00;;;3.00;;
635;SDS011;302;50.206;8.196;2024-03-23T09:48:38;4.97;;;2.67;;
635;SDS011;302;50.206;8.196;2024-03-23T09:51:22;4.68;;;2.50;;
635;SDS011;302;50.206;8.196;2024-03-23T09:54:06;5.47;;;3.08;;
635;SDS011;302;50.206;8.196;2024-03-23T09:56:50;3.83;;;2.60;;
635;SDS011;302;50.206;8.196;2024-03-23T09:59:34;5.07;;;2.85;;
635;SDS011;302;50.206;8.196;2024-03-23T10:02:18;4.28;;;2.55;;
635;SDS011;302;50.206;8.196;2024-03-23T10:05:04;3.10;;;2.75;;
635;SDS011;302;50.206;8.196;2024-03-23T10:07:51;4.32;;;2.60;;
635;SDS011;302;50.206;8.196;2024-03-23T10:10:35;4.93;;;2.67;;
635;SDS011;302;50.206;8.196;2024-03-23T10:13:28;4.28;;;2.63;;
635;SDS011;302;50.206;8.196;2024-03-23T10:16:22;4.93;;;2.55;;
635;SDS011;302;50.206;8.196;2024-03-23T10:19:06;5.18;;;2.72;;
635;SDS011;302;50.206;8.196;2024-03-23T10:21:54;5.78;;;2.63;;
635;SDS011;302;50.206;8.196;2024-03-23T10:24:38;4.05;;;1.98;;
635;SDS011;302;50.206;8.196;2024-03-23T10:27:22;3.60;;;1.83;;
635;SDS011;302;50.206;8.196;2024-03-23T10:30:12;6.25;;;2.35;;
635;SDS011;302;50.206;8.196;2024-03-23T10:33:09;3.60;;;1.85;;
635;SDS011;302;50.206;8.196;2024-03-23T10:35:53;4.55;;;2.25;;
635;SDS011;302;50.206;8.196;2024-03-23T10:38:38;3.90;;;2.20;;
635;SDS011;302;50.206;8.196;2024-03-23T10:41:26;3.05;;;1.70;;
635;SDS011;302;50.206;8.196;2024-03-23T10:44:10;4.03;;;2.10;;
635;SDS011;302;50.206;8.196;2024-03-23T10:46:55;4.72;;;1.88;;
635;SDS011;302;50.206;8.196;2024-03-23T10:49:42;3.88;;;1.67;;
635;SDS011;302;50.206;8.196;2024-03-23T10:52:27;3.85;;;2.15;;
635;SDS011;302;50.206;8.196;2024-03-23T10:55:10;7.88;;;2.60;;
635;SDS011;302;50.206;8.196;2024-03-23T10:57:54;8.35;;;3.35;;
635;SDS011;302;50.206;8.196;2024-03-23T11:00:39;7.90;;;2.85;;
635;SDS011;302;50.206;8.196;2024-03-23T11:03:30;3.70;;;3.25;;
635;SDS011;302;50.206;8.196;2024-03-23T11:15:12;8.75;;;4.70;;
635;SDS011;302;50.206;8.196;2024-03-23T11:18:02;6.82;;;4.05;;
635;SDS011;302;50.206;8.196;2024-03-23T11:20:47;4.75;;;3.42;;
635;SDS011;302;50.206;8.196;2024-03-23T11:23:31;3.65;;;3.35;;
635;SDS011;302;50.206;8.196;2024-03-23T11:26:15;4.40;;;2.95;;
635;SDS011;302;50.206;8.196;2024-03-23T11:29:09;6.78;;;3.30;;
635;SDS011;302;50.206;8.196;2024-03-23T11:31:53;3.65;;;2.85;;
635;SDS011;302;50.206;8.196;2024-03-23T11:34:37;5.20;;;2.72;;
635;SDS011;302;50.206;8.196;2024-03-23T11:37:22;3.60;;;3.20;;
635;SDS011;302;50.206;8.196;2024-03-23T11:40:16;3.70;;;3.05;;
635;SDS011;302;50.206;8.196;2024-03-23T11:43:10;3.25;;;2.85;;
635;SDS011;302;50.206;8.196;2024-03-23T11:45:55;4.25;;;2.85;;
635;SDS011;302;50.206;8.196;2024-03-23T11:48:41;3.53;;;2.22;;
635;SDS011;302;50.206;8.196;2024-03-23T11:51:32;3.75;;;2.50;;
635;SDS011;302;50.206;8.196;2024-03-23T11:54:25;3.45;;;2.10;;
635;SDS011;302;50.206;8.196;2024-03-23T11:57:09;4.53;;;2.53;;
635;SDS011;302;50.206;8.196;2024-03-23T11:59:53;2.30;;;2.03;;
635;SDS011;302;50.206;8.196;2024-03-23T12:02:37;2.50;;;2.30;;
635;SDS011;302;50.206;8.196;2024-03-23T12:05:21;3.95;;;2.35;;
635;SDS011;302;50.206;8.196;2024-03-23T12:11:06;5.15;;;3.10;;
635;SDS011;302;50.206;8.196;2024-03-23T12:13:50;2.65;;;2.20;;
635;SDS011;302;50.206;8.196;2024-03-23T12:16:35;3.08;;;1.90;;
635;SDS011;302;50.206;8.196;2024-03-23T12:19:19;1.90;;;1.65;;
635;SDS011;302;50.206;8.196;2024-03-23T12:22:05;2.50;;;1.95;;
635;SDS011;302;50.206;8.196;2024-03-23T12:24:49;3.50;;;2.38;;
635;SDS011;302;50.206;8.196;2024-03-23T12:27:34;4.20;;;2.80;;
635;SDS011;302;50.206;8.196;2024-03-23T12:30:18;3.97;;;2.08;;
635;SDS011;302;50.206;8.196;2024-03-23T12:33:03;5.03;;;2.03;;
635;SDS011;302;50.206;8.196;2024-03-23T12:35:50;3.10;;;1.60;;
635;SDS011;302;50.206;8.196;2024-03-23T12:38:34;1.90;;;1.50;;
635;SDS011;302;50.206;8.196;2024-03-23T12:41:18;2.22;;;1.00;;
635;SDS011;302;50.206;8.196;2024-03-23T12:44:02;4.60;;;1.77;;
635;SDS011;302;50.206;8.196;2024-03-23T12:46:45;2.05;;;1.48;;
635;SDS011;302;50.206;8.196;2024-03-23T12:49:30;1.20;;;0.90;;
635;SDS011;302;50.206;8.196;2024-03-23T12:52:13;3.10;;;1.65;;
635;SDS011;302;50.206;8.196;2024-03-23T12:54:58;1.80;;;1.70;;
635;SDS011;302;50.206;8.196;2024-03-23T12:57:41;1.98;;;1.60;;
635;SDS011;302;50.206;8.196;2024-03-23T13:00:26;3.30;;;1.85;;
635;SDS011;302;50.206;8.196;2024-03-23T13:03:13;2.03;;;1.65;;
635;SDS011;302;50.206;8.196;2024-03-23T13:05:57;1.98;;;1.25;;
635;SDS011;302;50.206;8.196;2024-03-23T13:08:41;1.15;;;1.05;;
635;SDS011;302;50.206;8.196;2024-03-23T13:11:28;3.45;;;1.15;;
635;SDS011;302;50.206;8.196;2024-03-23T13:14:12;1.95;;;1.20;;
635;SDS011;302;50.206;8.196;2024-03-23T13:16:58;1.30;;;1.00;;
635;SDS011;302;50.206;8.196;2024-03-23T13:19:42;1.60;;;0.93;;
635;SDS011;302;50.206;8.196;2024-03-23T13:22:26;1.92;;;1.40;;
635;SDS011;302;50.206;8.196;2024-03-23T13:25:10;3.40;;;2.58;;
635;SDS011;302;50.206;8.196;2024-03-23T13:27:54;1.55;;;1.30;;
635;SDS011;302;50.206;8.196;2024-03-23T13:30:38;1.73;;;1.23;;
635;SDS011;302;50.206;8.196;2024-03-23T13:33:22;1.73;;;1.20;;
635;SDS011;302;50.206;8.196;2024-03-23T13:36:06;1.85;;;1.30;;
635;SDS011;302;50.206;8.196;2024-03-23T13:38:50;3.92;;;1.50;;
635;SDS011;302;50.206;8.196;2024-03-23T13:41:35;2.72;;;1.55;;
635;SDS011;302;50.206;8.196;2024-03-23T13:44:19;1.30;;;0.90;;
635;SDS011;302;50.206;8.196;2024-03-23T13:47:03;2.45;;;0.70;;
635;SDS011;302;50.206;8.196;2024-03-23T13:49:47;2.65;;;0.80;;
635;SDS011;302;50.206;8.196;2024-03-23T13:52:32;2.08;;;0.95;;
635;SDS011;302;50.206;8.196;2024-03-23T13:55:16;1.35;;;0.93;;
635;SDS011;302;50.206;8.196;2024-03-23T13:58:02;2.13;;;1.02;;
635;SDS011;302;50.206;8.196;2024-03-23T14:00:46;1.77;;;1.30;;
635;SDS011;302;50.206;8.196;2024-03-23T14:03:30;1.38;;;0.90;;
635;SDS011;302;50.206;8.196;2024-03-23T14:06:14;2.13;;;0.90;;
635;SDS011;302;50.206;8.196;2024-03-23T14:08:58;1.63;;;1.00;;
635;SDS011;302;50.206;8.196;2024-03-23T14:11:42;1.75;;;1.33;;
635;SDS011;302;50.206;8.196;2024-03-23T14:14:27;3.17;;;0.90;;
635;SDS011;302;50.206;8.196;2024-03-23T14:17:11;1.10;;;0.80;;
635;SDS011;302;50.206;8.196;2024-03-23T14:19:58;1.10;;;0.90;;
635;SDS011;302;50.206;8.196;2024-03-23T14:22:44;1.10;;;0.70;;
635;SDS011;302;50.206;8.196;2024-03-23T14:25:28;0.97;;;0.60;;
635;SDS011;302;50.206;8.196;2024-03-23T14:28:13;1.30;;;0.73;;
635;SDS011;302;50.206;8.196;2024-03-23T14:31:00;1.10;;;0.70;;
635;SDS011;302;50.206;8.196;2024-03-23T14:33:44;2.00;;;0.87;;
635;SDS011;302;50.206;8.196;2024-03-23T14:36:31;1.83;;;0.90;;
635;SDS011;302;50.206;8.196;2024-03-23T14:39:15;1.50;;;0.70;;
635;SDS011;302;50.206;8.196;2024-03-23T14:41:59;1.87;;;0.77;;
635;SDS011;302;50.206;8.196;2024-03-23T14:44:43;1.25;;;0.90;;
635;SDS011;302;50.206;8.196;2024-03-23T14:47:27;2.35;;;1.35;;
635;SDS011;302;50.206;8.196;2024-03-23T14:50:10;2.58;;;1.55;;
635;SDS011;302;50.206;8.196;2024-03-23T14:52:58;1.40;;;0.98;;
635;SDS011;302;50.206;8.196;2024-03-23T14:55:43;2.15;;;0.90;;
635;SDS011;302;50.206;8.196;2024-03-23T14:58:32;2.05;;;0.73;;
635;SDS011;302;50.206;8.196;2024-03-23T15:01:18;3.35;;;0.82;;
635;SDS011;302;50.206;8.196;2024-03-23T15:04:02;1.20;;;1.00;;
635;SDS011;302;50.206;8.196;2024-03-23T15:06:47;2.55;;;1.40;;
635;SDS011;302;50.206;8.196;2024-03-23T15:09:33;2.17;;;1.48;;
635;SDS011;302;50.206;8.196;2024-03-23T15:12:17;1.50;;;1.10;;
635;SDS011;302;50.206;8.196;2024-03-23T15:15:00;2.05;;;0.93;;
635;SDS011;302;50.206;8.196;2024-03-23T15:17:44;1.30;;;0.70;;
635;SDS011;302;50.206;8.196;2024-03-23T15:20:29;1.58;;;0.80;;
635;SDS011;302;50.206;8.196;2024-03-23T15:23:13;1.65;;;0.80;;
635;SDS011;302;50.206;8.196;2024-03-23T15:25:57;2.78;;;1.00;;
635;SDS011;302;50.206;8.196;2024-03-23T15:28:42;1.33;;;0.60;;
635;SDS011;302;50.206;8.196;2024-03-23T15:31:46;2.15;;;0.95;;
635;SDS011;302;50.206;8.196;2024-03-23T15:34:30;1.27;;;0.80;;
635;SDS011;302;50.206;8.196;2024-03-23T15:37:14;2.28;;;0.80;;
635;SDS011;302;50.206;8.196;2024-03-23T15:39:58;2.08;;;1.08;;
635;SDS011;302;50.206;8.196;2024-03-23T15:42:42;1.92;;;0.90;;
635;SDS011;302;50.206;8.196;2024-03-23T15:45:26;1.67;;;0.88;;
635;SDS011;302;50.206;8.196;2024-03-23T15:48:10;1.80;;;0.85;;
635;SDS011;302;50.206;8.196;2024-03-23T15:50:55;2.22;;;0.90;;
635;SDS011;302;50.206;8.196;2024-03-23T15:53:39;1.90;;;0.70;;
635;SDS011;302;50.206;8.196;2024-03-23T15:56:23;1.65;;;0.85;;
635;SDS011;302;50.206;8.196;2024-03-23T15:59:07;1.48;;;1.00;;
635;SDS011;302;50.206;8.196;2024-03-23T16:01:51;2.22;;;0.90;;
635;SDS011;302;50.206;8.196;2024-03-23T16:04:35;1.10;;;0.70;;
635;SDS011;302;50.206;8.196;2024-03-23T16:07:19;1.15;;;0.80;;
635;SDS011;302;50.206;8.196;2024-03-23T16:10:03;1.48;;;0.70;;
635;SDS011;302;50.206;8.196;2024-03-23T16:12:51;1.60;;;0.98;;
635;SDS011;302;50.206;8.196;2024-03-23T16:15:35;1.20;;;0.85;;
635;SDS011;302;50.206;8.196;2024-03-23T16:18:19;2.08;;;0.80;;
635;SDS011;302;50.206;8.196;2024-03-23T16:21:03;1.52;;;0.80;;
635;SDS011;302;50.206;8.196;2024-03-23T16:23:48;1.98;;;0.90;;
635;SDS011;302;50.206;8.196;2024-03-23T16:26:32;1.60;;;0.90;;
635;SDS011;302;50.206;8.196;2024-03-23T16:29:16;2.03;;;1.00;;
635;SDS011;302;50.206;8.196;2024-03-23T16:32:00;1.15;;;0.80;;
635;SDS011;302;50.206;8.196;2024-03-23T16:34:44;1.48;;;0.88;;
635;SDS011;302;50.206;8.196;2024-03-23T16:37:28;3.70;;;1.20;;
635;SDS011;302;50.206;8.196;2024-03-23T16:40:12;1.95;;;0.98;;
635;SDS011;302;50.206;8.196;2024-03-23T16:42:56;1.48;;;0.98;;
635;SDS011;302;50.206;8.196;2024-03-23T16:45:40;1.63;;;0.93;;
635;SDS011;302;50.206;8.196;2024-03-23T16:48:24;1.30;;;0.73;;
635;SDS011;302;50.206;8.196;2024-03-23T16:51:09;2.63;;;1.50;;
635;SDS011;302;50.206;8.196;2024-03-23T16:53:53;2.30;;;1.08;;
635;SDS011;302;50.206;8.196;2024-03-23T16:56:39;2.17;;;1.23;;
635;SDS011;302;50.206;8.196;2024-03-23T16:59:23;2.17;;;0.80;;
635;SDS011;302;50.206;8.196;2024-03-23T17:02:07;1.30;;;0.60;;
635;SDS011;302;50.206;8.196;2024-03-23T17:04:52;1.60;;;1.38;;
635;SDS011;302;50.206;8.196;2024-03-23T17:07:36;2.30;;;1.00;;
635;SDS011;302;50.206;8.196;2024-03-23T17:10:20;1.60;;;1.20;;
635;SDS011;302;50.206;8.196;2024-03-23T17:13:04;1.30;;;0.80;;
635;SDS011;302;50.206;8.196;2024-03-23T17:15:48;0.90;;;0.70;;
635;SDS011;302;50.206;8.196;2024-03-23T17:18:33;1.55;;;1.45;;
635;SDS011;302;50.206;8.196;2024-03-23T17:21:17;1.58;;;1.40;;
635;SDS011;302;50.206;8.196;2024-03-23T17:24:01;1.60;;;1.50;;
635;SDS011;302;50.206;8.196;2024-03-23T17:26:46;2.10;;;1.90;;
635;SDS011;302;50.206;8.196;2024-03-23T17:29:30;2.10;;;2.00;;
635;SDS011;302;50.206;8.196;2024-03-23T17:32:14;3.90;;;3.65;;
635;SDS011;302;50.206;8.196;2024-03-23T17:34:58;2.53;;;1.55;;
635;SDS011;302;50.206;8.196;2024-03-23T17:37:42;4.88;;;4.15;;
635;SDS011;302;50.206;8.196;2024-03-23T17:40:26;5.10;;;3.58;;
635;SDS011;302;50.206;8.196;2024-03-23T17:43:10;17.33;;;8.85;;
635;SDS011;302;50.206;8.196;2024-03-23T17:45:54;11.60;;;7.53;;
635;SDS011;302;50.206;8.196;2024-03-23T17:48:38;8.90;;;5.80;;
635;SDS011;302;50.206;8.196;2024-03-23T17:51:22;4.90;;;3.88;;
635;SDS011;302;50.206;8.196;2024-03-23T17:54:07;2.50;;;2.30;;
635;SDS011;302;50.206;8.196;2024-03-23T17:56:51;2.47;;;1.83;;
635;SDS011;302;50.206;8.196;2024-03-23T17:59:34;1.65;;;1.50;;
635;SDS011;302;50.206;8.196;2024-03-23T18:02:18;1.20;;;0.80;;
635;SDS011;302;50.206;8.196;2024-03-23T18:05:04;1.00;;;0.70;;
635;SDS011;302;50.206;8.196;2024-03-23T18:07:48;2.05;;;0.80;;
635;SDS011;302;50.206;8.196;2024-03-23T18:10:32;2.05;;;1.90;;
635;SDS011;302;50.206;8.196;2024-03-23T18:13:16;2.35;;;1.85;;
635;SDS011;302;50.206;8.196;2024-03-23T18:16:00;2.03;;;1.80;;
635;SDS011;302;50.206;8.196;2024-03-23T18:18:45;1.88;;;1.67;;
635;SDS011;302;50.206;8.196;2024-03-23T18:21:28;1.65;;;1.30;;
635;SDS011;302;50.206;8.196;2024-03-23T18:24:12;2.60;;;1.40;;
635;SDS011;302;50.206;8.196;2024-03-23T18:26:56;1.40;;;1.20;;
635;SDS011;302;50.206;8.196;2024-03-23T18:29:40;2.08;;;1.38;;
635;SDS011;302;50.206;8.196;2024-03-23T18:32:25;2.83;;;1.35;;
635;SDS011;302;50.206;8.196;2024-03-23T18:35:09;1.40;;;1.30;;